Results / 49th Saguaro National Park Labor Day 8-Miler & 5k Walk/Run / 2005 Results

Monday, September 5, 2005

Overall Results


Saguaro National Park Labor Day 8 Mile Run
Saguaro National Park, Tucson, AZ
Monday, September 5, 2005


Place TIME NAME  CITY DIVISION Sex Age PACE 
1 45:53:00 Jason Colavito Tucson M20-24 M 21 05:44.1 
2 47:59:00 Derek Delancey Scottsdale M25-29 M 27 05:59.9 
3 49:06:00 Julio Felix Tucson M30-34 M 32 06:08.3 
4 49:17:00 Mike Salkowski Tucson M30-34 M 34 06:09.6 
5 49:33:00 Bill Cuculic Tucson M45-49 M 45 06:11.6 
6 49:38:00 Doug Kelly Tucson M40-44 M 40 06:12.2 
7 49:40:00 Lucas Tyler Tucson M20-24 M 24 06:12.5 
8 50:10:00 Brian Hall Tucson M30-34 M 30 06:16.2 
9 50:27:00 Brian Gerl Tucson M30-34 M 30 06:18.4 
10 50:53:00 Ben Wilder Tucson M35-39 M 37 06:21.6 
11 51:34:00 Kevin Tuck Salt Lake City M45-49 M 49 06:26.8 
12 52:38:00 Kevin Stone Tucson M40-44 M 41 06:34.8 
13 53:09:00 Brian Hayes Fort Huachuca M30-34 M 31 06:38.6 
14 53:22:00 Matt Penn Tucson M40-44 M 40 06:40.3 
15 53:42:00 Tek Kilgore salt lake city M50-54 M 51 06:42.8 
16 53:46:00 Matt Novak Tucson M30-34 M 31 06:43.2 
17 53:53:00 Fred Roberts Tucson M40-44 M 44 06:44.1 
18 54:02:00 Greg Wilson chula vista M50-54 M 53 06:45.2 
19 54:20:00 Martin Peña Tucson M40-44 M 43 06:47.5 
20 54:49:00 Bart Erickson Tucson M45-49 M 47 06:51.1 
21 54:59:00 Scott Cole Tucson M20-24 M 22 06:52.4 
22 55:40:00 Russell Hamilton Tucson M40-44 M 44 06:57.5 
23 55:45:00 Ron Diaz Tucson M35-39 M 38 06:58.1 
24 55:47:00 Thomas Cupis Tucson M15-19 M 17 06:58.4 
25 55:53:00 Allison Delancey Scottsdale F25-29 F 25 06:59.1 
26 56:05:00 Bob Evers park city M50-54 M 54 07:00.6 
27 56:18:00 Rich Scholes Tucson M35-39 M 37 07:02.2 
28 56:34:00 Frank Reynolds Tucson M40-44 M 40 07:04.3 
29 56:37:00 Roger Bartlett Tucson M40-44 M 44 07:04.6 
30 56:40:00 Matt Hage Gilbert M30-34 M 34 07:05.0 
31 56:44:00 Jeffrey Bowen Tucson M40-44 M 43 07:05.5 
32 56:47:00 Todd Johnson Chandler M40-44 M 40 07:05.9 
33 56:48:00 Jesus Vasquez Sahuarita M20-24 M 21 07:06.0 
34 57:00:00 Thomas McGreevy Tucson M40-44 M 44 07:07.5 
35 57:01:00 Stuart Hancock Tucson M50-54 M 52 07:07.6 
36 57:17:00 Dan Trimble Marana M35-39 M 37 07:09.6 
37 57:24:00 Joel Woppert OroValley M45-49 M 47 07:10.5 
38 57:30:00 Matthew Miller Sahuarita M25-29 M 28 07:11.3 
39 57:39:00 Jeanne Krizman Tucson F30-34 F 31 07:12.4 
40 57:43:00 Mark Martin Tucson M40-44 M 44 07:12.9 
41 57:47:00 Juan Cabeza Torrance M60-64 M 61 07:13.4 
42 57:51:00 Jessica Munson Tucson F25-29 F 26 07:13.9 
43 57:52:00 Jonathan Scholnick Tucson M25-29 M 29 07:14.0 
44 58:02:00 Julius Martinez Tucson M35-39 M 38 07:15.2 
45 58:03:00 James McDorman Vail M15-19 M 15 07:15.4 
46 58:05:00 Buck Hollander Tucson M50-54 M 54 07:15.6 
47 58:11:00 Bill Daniell Tucson M35-39 M 35 07:16.4 
48 58:14:00 George Wilcox Tucson M40-44 M 42 07:16.8 
49 58:18:00 Daniel Manning Tucson M30-34 M 32 07:17.2 
50 58:33:00 Chris Rife Tucson M45-49 M 46 07:19.1 
51 58:36:00 Katie Pittenger Tucson F25-29 F 26 07:19.5 
52 58:55:00 Jeff Balmat Tucson M25-29 M 28 07:21.9 
53 59:01:00 Kazimierz Rolek Tucson M45-49 M 45 07:22.6 
54 59:09:00 Wayne Rogers Tucson M45-49 M 48 07:23.6 
55 59:13:00 Peter Ruggles Benson M45-49 M 45 07:24.1 
56 59:15:00 Enrique Guillen Tucson M45-49 M 45 07:24.4 
57 59:16:00 Leo Masursky Tucson M35-39 M 39 07:24.5 
58 59:19:00 Craig Wisniewski Tucson M25-29 M 28 07:24.9 
59 59:22:00 Mike Frick Tucson M35-39 M 39 07:25.3 
60 59:31:00 William Conway Tucson M35-39 M 35 07:26.4 
61 59:33:00 Gary Schwartz Tucson M35-39 M 37 07:26.6 
62 59:39:00 Matt Panipinto Tucson M40-44 M 42 07:27.4 
63 59:46:00 Matt Dabkowski Tucson M25-29 M 29 07:28.2 
64 59:58:00 Craig Davidson Phoenix M50-54 M 51 07:29.8 
65 1:00:03 Celestino Fernandez Tucson M55-59 M 56 07:30.4 
66 1:00:20 Mark Morrison Tucson M25-29 M 29 07:32.5 
67 1:00:21 Richard Chase Tucson M45-49 M 49 07:32.6 
68 1:00:24 Tom Sivilli Tucson M20-24 M 22 07:33.0 
69 1:00:35 Mark Voss Chandler M30-34 M 33 07:34.4 
70 1:00:37 Richard Martinez OroValley M45-49 M 48 07:34.6 
71 1:00:39 Dan Mellady Tucson M30-34 M 32 07:34.9 
72 1:00:40 Mark Briggs Tucson M40-44 M 44 07:35.0 
73 1:00:57 John McLean Tucson M45-49 M 49 07:37.1 
74 1:00:59 David Mellady Tucson M65-69 M 67 07:37.4 
75 1:01:02 Dave Woods Tucson M35-39 M 35 07:37.7 
76 1:01:05 Robin Quarrier Tucson F20-24 F 23 07:38.1 
77 1:01:07 Robert Norwood Tucson M40-44 M 43 07:38.4 
78 1:01:15 Ed Mraz Tucson M55-59 M 56 07:39.4 
79 1:01:19 Michael Durando Tucson M20-24 M 24 07:39.9 
80 1:01:26 David Woodall Morenci M45-49 M 49 07:40.7 
81 1:01:43 Russell Adelman Tucson M30-34 M 33 07:42.9 
82 1:02:01 John Carruth Vail M35-39 M 38 07:45.1 
83 1:02:06 Thomas Morris Tucson M35-39 M 39 07:45.8 
84 1:02:10 Richard Thomas Bisbee M45-49 M 46 07:46.2 
85 1:02:20 David Alexander Tucson M25-29 M 28 07:47.5 
86 1:02:28 Steve Hughes Tucson M50-54 M 50 07:48.5 
87 1:02:30 Shawn Jackson Tucson M30-34 M 34 07:48.8 
88 1:02:36 Cotah Rose Tucson F45-49 F 49 07:49.5 
89 1:02:43 Nicole Dabkowski Tucson F25-29 F 29 07:50.4 
90 1:02:48 Ken Johns Tucson M45-49 M 47 07:51.0 
91 1:02:56 David Smith Tucson M40-44 M 43 07:52.0 
92 1:02:59 Julie Newhouse Tucson F45-49 F 46 07:52.4 
93 1:03:01 Rich Robinson Tucson M50-54 M 52 07:52.6 
94 1:03:05 Daniel McDonald Tucson M45-49 M 45 07:53.1 
95 1:03:17 Larry Peterson Tucson M45-49 M 46 07:54.6 
96 1:03:20 Trevor Atwood Tucson M30-34 M 31 07:55.0 
97 1:03:23 Steve Hollander tucson M40-44 M 41 07:55.4 
98 1:03:24 Paul Smith Tucson M01-14 M 13 07:55.5 
99 1:03:26 Adrienne Weede Oro Valley F30-34 F 30 07:55.7 
100 1:03:27 Thomas Caylor Tucson M40-44 M 42 07:55.9 
101 1:03:38 Jennifer Wilcox Worcester F25-29 F 29 07:57.3 
102 1:03:43 Tom Small Tempe M30-34 M 33 07:57.9 
103 1:03:57 Mark Dangerfield Mesa M55-59 M 55 07:59.6 
104 1:03:58 Barbara Leinweber Tucson F35-39 F 38 07:59.8 
105 1:04:02 Paul Vyriotes Tucson M40-44 M 43 08:00.2 
106 1:04:12 Kate Ihle Tempe F25-29 F 26 08:01.5 
107 1:04:15 Christopher Cunniff tucson M45-49 M 46 08:01.9 
108 1:04:22 Caroline Gardiner Tucson F45-49 F 45 08:02.7 
109 1:04:26 Everrett Blocker SierraVista M40-44 M 40 08:03.3 
110 1:04:29 Pete Snell Tucson M40-44 M 44 08:03.6 
111 1:04:35 Daren Sandbank OroValley M45-49 M 46 08:04.4 
112 1:04:40 Don Gilbert Phoenix M50-54 M 54 08:05.0 
113 1:04:46 Alejandro Ashe Tucson M35-39 M 35 08:05.7 
114 1:04:48 George Delalis Chandler M40-44 M 44 08:06.0 
115 1:04:58 Thea Strand Tucson F20-24 F 24 08:07.3 
116 1:05:01 Michael Erickson Tucson M45-49 M 45 08:07.6 
117 1:05:07 Melody Mustafa Tucson F45-49 F 46 08:08.4 
118 1:05:14 Max Suter Tucson M50-54 M 54 08:09.3 
119 1:05:19 Andy Dolphin Tucson M30-34 M 33 08:09.9 
120 1:05:26 Wieke DeBoer Tucson F25-29 F 26 08:10.8 
121 1:05:30 David Armet Tucson M50-54 M 54 08:11.3 
122 1:05:31 Susy Bacal Tucson F40-44 F 40 08:11.4 
123 1:05:36 April Ludwig Tucson F45-49 F 46 08:12.0 
124 1:05:37 Steven Hollander Tucson M55-59 M 55 08:12.1 
125 1:05:43 Craig Dabler Tucson M40-44 M 42 08:12.9 
126 1:05:45 Michael Adams Tucson M50-54 M 54 08:13.1 
127 1:05:48 John Darling salinas M50-54 M 52 08:13.5 
128 1:05:53 Keith Schlottman Tucson M40-44 M 41 08:14.1 
129 1:06:06 Steve Hedberg Tucson M50-54 M 52 08:15.7 
130 1:06:15 Calvin Baker Tucson M50-54 M 53 08:16.9 
131 1:06:20 Larry Eastman bellport M55-59 M 59 08:17.5 
132 1:06:23 Donna Pierson Tucson F50-54 F 54 08:17.9 
133 1:06:25 Lisa Salgado Tucson F40-44 F 43 08:18.1 
134 1:06:27 Shannon Swartz Phoenix F25-29 F 29 08:18.4 
135 1:06:28 Martin VanLeeuwen Tucson M50-54 M 51 08:18.5 
136 1:06:46 Luis Figueroa Tucson M50-54 M 51 08:20.7 
137 1:06:49 Todd Barlow Tucson M40-44 M 41 08:21.1 
138 1:06:56 Robert Neske Ft Huachuca M55-59 M 58 08:22.0 
139 1:07:04 Vanessa Stanford Tucson F35-39 F 35 08:23.0 
140 1:07:06 Marjanne Schnarr Tucson F25-29 F 28 08:23.2 
141 1:07:08 Blake Kelly Tucson M45-49 M 45 08:23.5 
142 1:07:14 Stephen Gilliland Tucson M40-44 M 40 08:24.3 
143 1:07:18 Mark Cochran Tucson M55-59 M 55 08:24.7 
144 1:07:19 Cynthia Schnell Tucson F35-39 F 35 08:24.9 
145 1:07:28 Laundon Transue Tucson M15-19 M 16 08:26.0 
146 1:07:31 Michael Rabern Scottsdale M25-29 M 29 08:26.4 
147 1:07:34 James Hill Chandler M40-44 M 40 08:26.7 
148 1:07:40 Robert Fink Tucson M40-44 M 41 08:27.5 
149 1:07:51 Ricardo Chapetti Tucson M40-44 M 42 08:28.9 
150 1:07:54 Brooke Wells Tucson F25-29 F 26 08:29.3 
151 1:07:58 Zach Eshelman Corona M15-19 M 18 08:29.8 
152 1:08:00 Nancy Petersen Tucson F45-49 F 45 08:30.0 
153 1:08:03 Lori Ligouri Concord F25-29 F 28 08:30.4 
154 1:08:10 Mark Sankey Tucson M45-49 M 48 08:31.3 
155 1:08:12 Karen Badinger Tucson F40-44 F 40 08:31.5 
156 1:08:20 Beth Howard Scottsdale F45-49 F 46 08:32.5 
157 1:08:24 Chris Donahue Tucson M45-49 M 45 08:33.0 
158 1:08:25 Daniel Garcia Tucson M25-29 M 27 08:33.1 
159 1:08:26 Tony Fahlberg Tucson M30-34 M 33 08:33.3 
160 1:08:30 Don Branaman Tucson M65-69 M 67 08:33.8 
161 1:08:40 Michael Mann Tucson M35-39 M 39 08:35.0 
162 1:08:43 Jessica Abel Tucson F30-34 F 32 08:35.4 
163 1:08:48 Carson Coates Tucson M30-34 M 30 08:36.0 
164 1:08:52 Justin Domagalski Tucson M30-34 M 30 08:36.5 
165 1:08:53 Fred Magana Tucson M40-44 M 42 08:36.6 
166 1:08:54 Stephen DeLong Tucson M30-34 M 31 08:36.8 
167 1:08:55 Bradley Mitzelfelt Wrightwood M35-39 M 38 08:36.9 
168 1:09:12 Tom Billionis Tucson M30-34 M 34 08:39.0 
169 1:09:18 Charles Chambers Tucson M55-59 M 56 08:39.7 
170 1:09:19 Gawain Douglas Tucson M35-39 M 35 08:39.9 
171 1:09:19 Cristin VanDriel Phoenix F25-29 F 26 08:39.9 
172 1:09:23 Randy Lyle Tucson M45-49 M 46 08:40.4 
173 1:09:24 Albert Neroni Tucson M50-54 M 54 08:40.5 
174 1:09:26 John Buttram Tucson M45-49 M 47 08:40.8 
175 1:09:28 Hal Maynard Tucson M35-39 M 39 08:41.0 
176 1:09:29 Carmella Schaecher TUCSON F25-29 F 29 08:41.1 
177 1:09:31 John Litteer Tucson M40-44 M 40 08:41.4 
178 1:09:35 Patrick Leonti Marana M60-64 M 63 08:41.9 
179 1:09:37 Dustin Holmes Tucson M30-34 M 34 08:42.1 
180 1:09:41 John Pitcairn Phoenix M60-64 M 63 08:42.6 
181 1:10:00 Robert Newton Tucson M40-44 M 43 08:45.0 
182 1:10:03 Gary Denny Tucson M55-59 M 55 08:45.4 
183 1:10:10 Shelley Daniell Tucson F30-34 F 32 08:46.3 
184 1:10:12 Leon Sierra Tucson M25-29 M 29 08:46.5 
185 1:10:13 Scott Shelton Tucson M25-29 M 29 08:46.6 
186 1:10:14 Richard Liederer Phoenix M45-49 M 47 08:46.8 
187 1:10:19 Chris Sonderman OroValley M40-44 M 43 08:47.4 
188 1:10:20 Keith Kendall St.David M50-54 M 54 08:47.5 
189 1:10:27 Vincent Sorrell Tucson M40-44 M 43 08:48.4 
190 1:10:31 Mark Mason Tucson M30-34 M 33 08:48.9 
191 1:10:37 Ryan Bledsoe Tucson M25-29 M 28 08:49.6 
192 1:10:38 Kristen Metzger Tucson F30-34 F 33 08:49.8 
193 1:10:41 Whitney Moore Tucson F25-29 F 25 08:50.1 
194 1:10:44 Greg Bauer Tucson M35-39 M 38 08:50.5 
195 1:10:45 Delayne Casman Tucson F20-24 F 23 08:50.6 
196 1:10:46 Melissa Ziegler Tucson F35-39 M 36 08:50.7 
197 1:10:47 Hazel Chase Tucson F30-34 F 32 08:50.9 
198 1:10:48 Robert Mack ElPaso M50-54 M 50 08:51.0 
199 1:10:49 Steve Taggart Tucson M40-44 M 43 08:51.1 
200 1:10:52 Andrew Walz VirginiaBeach M25-29 M 28 08:51.5 
201 1:10:59 Keith Forsyth scottsdale M45-49 M 47 08:52.4 
202 1:11:00 Tom Wiper Tucson M65-69 M 67 08:52.5 
203 1:11:04 Heather Mougeot Sahuarita F35-39 F 36 08:53.0 
204 1:11:04 Tim Pomeroy Tucson M35-39 M 37 08:53.0 
205 1:11:15 Brent Finley Tucson M45-49 M 47 08:54.4 
206 1:11:18 Peter Loiselle Tucson M50-54 M 54 08:54.7 
207 1:11:19 Daniel Kelleher Tucson M25-29 M 25 08:54.9 
208 1:11:21 Billie Melischke Tucson F30-34 F 32 08:55.1 
209 1:11:32 Paul Tosca Tucson M35-39 M 38 08:56.5 
210 1:11:38 Ana Ostrum Tucson F30-34 F 33 08:57.3 
211 1:11:41 Elizabeth Farkas Tucson F25-29 F 26 08:57.6 
212 1:11:45 Mark Squires Tucson M25-29 M 25 08:58.1 
213 1:11:47 Sarah Beard Tucson F20-24 F 21 08:58.4 
214 1:11:48 Diane Fernandez Tucson F35-39 F 35 08:58.5 
215 1:11:49 Margaret DeHesse Phoenix F45-49 F 49 08:58.6 
216 1:11:50 Michael Brady Scottsdale M50-54 M 53 08:58.7 
217 1:11:51 Ralph Renger Tucson M40-44 M 44 08:58.9 
218 1:11:57 Paul Krueger Tucson M35-39 M 39 08:59.6 
219 1:11:59 Jody Decker Tucson F35-39 F 35 08:59.9 
220 1:12:02 Tim Story Tucson M35-39 M 39 09:00.2 
221 1:12:04 Mary Werner Tucson F30-34 F 33 09:00.5 
222 1:12:05 Rose McCool Denver F40-44 F 44 09:00.6 
223 1:12:11 Bob Shapiro tucson M55-59 M 58 09:01.4 
224 1:12:14 Bernhard Nelson Sahuarita M45-49 M 49 09:01.8 
225 1:12:16 Adam Levy Tucson M30-34 M 34 09:02.0 
226 1:12:18 Bobby DeAngelo Tucson M45-49 M 49 09:02.2 
227 1:12:22 Dennis Elley Marana M60-64 M 63 09:02.7 
228 1:12:25 Steven Belter Tucson M40-44 M 40 09:03.1 
229 1:12:26 Scott Myers Vail M35-39 M 35 09:03.3 
230 1:12:27 Eric Lafontaine Vail M25-29 M 27 09:03.4 
231 1:12:28 John Gross Tucson M55-59 M 58 09:03.5 
232 1:12:32 Christopher Kemp Columbia M35-39 M 39 09:04.0 
233 1:12:36 Midge Irwin Tucson F45-49 F 48 09:04.5 
234 1:12:40 Erik Brown Tucson M35-39 M 36 09:05.0 
235 1:12:41 Betty Thorpe Tucson F30-34 F 30 09:05.1 
236 1:12:43 Lynn Hamilton Tucson F40-44 F 43 09:05.4 
237 1:12:48 Shannon Fox Tuson F30-34 F 34 09:06.0 
238 1:12:52 Max Gefter Tucson M20-24 M 24 09:06.5 
239 1:12:54 Agnes Rysz Tucson F25-29 F 29 09:06.8 
240 1:12:54 David Sullivan Tucson M30-34 M 34 09:06.8 
241 1:13:03 Larry Rosenthal Tucson M60-64 M 62 09:07.9 
242 1:13:05 Amy Dechant Tucson F30-34 F 34 09:08.1 
243 1:13:08 Kevin Gaither-Banchoff Tucson M35-39 M 36 09:08.5 
244 1:13:16 Kalin Conaway Bisbee M45-49 M 48 09:09.5 
245 1:13:21 Robert Marshall Tucson M50-54 M 50 09:10.1 
246 1:13:31 Stacey Forsyth Tucson F30-34 F 32 09:11.4 
247 1:13:54 Pam Stone Tucson F40-44 F 44 09:14.3 
248 1:13:55 William Weickhardt Tucson M25-29 M 27 09:14.4 
249 1:13:56 Sandi Baird Tucson F40-44 F 44 09:14.5 
250 1:13:57 Melinda Bobell Vail F50-54 F 54 09:14.6 
251 1:14:05 David Kritz Tucson M25-29 M 29 09:15.6 
252 1:14:10 Dennis Bonilla Tucson M45-49 M 46 09:16.3 
253 1:14:12 Brenda Osborn Gilbert F45-49 F 45 09:16.5 
254 1:14:14 Jim Sivilli Tucson M50-54 M 52 09:16.8 
255 1:14:17 Christina Maldonado Gilbert F40-44 F 40 09:17.1 
256 1:14:17 Faith Posey Tucson F25-29 F 29 09:17.1 
257 1:14:18 Don Rombach Tucson M35-39 M 35 09:17.2 
258 1:14:21 Douglas Downing Sonoita M45-49 M 48 09:17.6 
259 1:14:25 Brian Hawkins Tucson M25-29 M 27 09:18.1 
260 1:14:26 Suszie Weisband Tucson F45-49 F 48 09:18.3 
261 1:14:27 Libby Shelton Tucson F25-29 F 27 09:18.4 
262 1:14:29 Jeannie Welch Vail F45-49 F 45 09:18.6 
263 1:14:30 Cheryl Richards Tucson F35-39 F 36 09:18.8 
264 1:14:31 Tina Manns FortHuachuca F40-44 F 41 09:18.9 
265 1:14:36 Damon Buckner Sahuarita M30-34 M 34 09:19.5 
266 1:14:51 Heather Garrick Tucson F25-29 F 25 09:21.4 
267 1:14:52 Vince Vasquez Tucson M30-34 M 30 09:21.5 
268 1:14:59 Erika Arban Tucson F30-34 F 30 09:22.4 
269 1:15:07 Jack Currie Vail M65-69 M 69 09:23.4 
270 1:15:10 Kevin Thornton OroValley M30-34 M 33 09:23.8 
271 1:15:11 Paco Delgado SanDiego M30-34 M 31 09:23.9 
272 1:15:20 Clay Mottaz OroValley M65-69 M 66 09:25.0 
273 1:15:21 Sherry Hansen Tucson F50-54 F 53 09:25.1 
274 1:15:26 Steve Zimmer Tucson M25-29 M 29 09:25.8 
275 1:15:28 Rick Olafson Tucson M55-59 M 58 09:26.0 
276 1:15:37 Brian Mueller Tucson M45-49 M 49 09:27.1 
277 1:15:39 John Osborn gilbert M40-44 M 43 09:27.4 
278 1:15:45 AricaSam Ryersbach Tucson F40-44 F 42 09:28.1 
279 1:15:48 Heidi Lee Tucson F35-39 F 39 09:28.5 
280 1:15:51 James Ratner Tucson M50-54 M 52 09:28.9 
281 1:15:53 Shane Chism Tucson M25-29 M 28 09:29.1 
282 1:15:56 Joseph Hubert Vail M35-39 M 39 09:29.5 
283 1:16:06 Margie Norem Tucson F50-54 F 52 09:30.7 
284 1:16:07 Katie Brown Mesa F25-29 F 27 09:30.9 
285 1:16:17 Mark Channell Tucson M35-39 M 36 09:32.1 
286 1:16:28 Amy Jo Ott Tucson F30-34 F 31 09:33.5 
287 1:16:29 Summer Sando Tucson F20-24 F 23 09:33.6 
288 1:16:32 Jerry Wothe Tucson M60-64 M 64 09:34.0 
289 1:16:33 Jaime Reyes Tucson M35-39 M 36 09:34.1 
290 1:16:34 Mark Goforth Tucson M40-44 M 44 09:34.2 
291 1:16:36 Gary Love Tucson M55-59 M 55 09:34.5 
292 1:16:42 Casey Parr Vail M30-34 M 30 09:35.3 
293 1:16:43 Greg Cameron Tucson M25-29 M 26 09:35.4 
294 1:16:45 Bart Pemberton Tucson M35-39 M 36 09:35.6 
295 1:16:46 Laurence Kaye Tucson M40-44 M 44 09:35.7 
296 1:16:48 Eve Drinis Chandler F40-44 F 43 09:36.0 
297 1:16:49 Mark Irwin Tucson M40-44 M 42 09:36.1 
298 1:16:50 Cassandra Carey Tucson F20-24 F 24 09:36.2 
299 1:16:50 Jill Sinclair Tucson F35-39 F 39 09:36.2 
300 1:16:51 Chris Humble Scottsdale F50-54 F 51 09:36.4 
301 1:17:02 Michelle Kaseler Tucson F25-29 F 29 09:37.7 
302 1:17:03 Uta Brady Scottsdale F40-44 F 44 09:37.9 
303 1:17:04 John Okonya Tucson M45-49 M 46 09:38.0 
304 1:17:05 Ingrid Trebisky Tucson F45-49 F 47 09:38.1 
305 1:17:05 John Bianchi OroValley M55-59 M 58 09:38.1 
306 1:17:08 Gar Stone Tucson M50-54 M 53 09:38.5 
307 1:17:15 Robert Glennon Tucson M60-64 M 61 09:39.4 
308 1:17:26 Jane Morrison Tucson F35-39 F 39 09:40.8 
309 1:17:27 Renee Webb Tucson F35-39 F 37 09:40.9 
310 1:17:31 Rachel Squires Tucson F20-24 F 23 09:41.4 
311 1:17:36 Gregory Kelly GroverBeach M35-39 M 36 09:42.0 
312 1:17:39 Subhern Hanny Hin Tucson F20-24 F 21 09:42.4 
313 1:17:46 Jeanne Snell Tucson F40-44 F 40 09:43.2 
314 1:17:48 Debbie Niles Tucson F45-49 F 46 09:43.5 
315 1:18:01 David Midel Tucson M45-49 M 47 09:45.1 
316 1:18:04 Michael Martinez Tucson M25-29 M 27 09:45.5 
317 1:18:08 Mark Wallis Tucson M45-49 M 47 09:46.0 
318 1:18:18 Kay Smith Tucson F45-49 F 48 09:47.2 
319 1:18:18 Dorene Mahrer Tucson F60-64 F 60 09:47.2 
320 1:18:30 Shirley Hester Tucson F60-64 F 62 09:48.8 
321 1:18:48 Adan Velazquez Tucson M40-44 M 40 09:51.0 
322 1:18:59 Robert Anderson Tucson M30-34 M 31 09:52.4 
323 1:19:02 Chad Wangsvick Tucson M30-34 M 33 09:52.7 
324 1:19:18 Shannon Schwitters Tucson M35-39 M 38 09:54.7 
325 1:19:24 Sheryl Felde Tucson F45-49 F 45 09:55.5 
326 1:19:25 Harvey Blair Oro Valley M60-64 M 62 09:55.6 
327 1:19:34 Patty Casman Tucson F50-54 F 51 09:56.7 
328 1:19:35 Jackie Welch Vail F35-39 F 36 09:56.9 
329 1:19:41 William Guffy Tucson M50-54 M 52 09:57.6 
330 1:19:51 Betsy Woodhouse Tucson F40-44 F 42 09:58.9 
331 1:19:52 Terry Truan Tucson M55-59 M 58 09:59.0 
332 1:19:53 Michelle Mendoza Tucson F30-34 F 32 09:59.1 
333 1:19:54 Rick Karl Tucson M50-54 M 51 09:59.3 
334 1:19:55 Digna DeBoer Tucson F55-59 F 56 09:59.4 
335 1:19:57 Jeff Lewis Tucson M35-39 M 39 09:59.6 
336 1:20:01 Jeffrey Gilbert Tucson M20-24 M 20 10:00.1 
337 1:20:17 Sara Burke Tucson F25-29 F 28 10:02.1 
338 1:20:22 Jeanne Hough Tucson F45-49 F 49 10:02.7 
339 1:20:25 Raymond Prizgintas LosAngeles M65-69 M 68 10:03.1 
340 1:20:32 Jim Epstein Tucson M45-49 M 49 10:04.0 
341 1:20:35 Deborah Yellowaga Phoenix F30-34 F 31 10:04.4 
342 1:20:49 Beverly Schulz Tucson F60-64 F 63 10:06.1 
343 1:20:52 Kim Ferranti Tucson F45-49 F 46 10:06.5 
344 1:20:54 Ken Goodman Tucson M50-54 M 54 10:06.8 
345 1:20:57 Julia Chacon Tucson F20-24 F 22 10:07.1 
346 1:20:59 Tom Matthews Tucson M65-69 M 65 10:07.4 
347 1:21:01 Sandy Cliché Tucson F50-54 F 52 10:07.6 
348 1:21:02 Rebecca Coultas Benson F15-19 F 17 10:07.7 
349 1:21:08 Anna Grube Tucson F25-29 F 28 10:08.5 
350 1:21:12 Lucia Larsen Tucson F45-49 F 47 10:09.0 
351 1:21:15 Richard Spira Phoenix M70-74 M 70 10:09.4 
352 1:21:19 John Wall Tucson M55-59 M 59 10:09.9 
353 1:21:21 Kazumi Chino Tucson F30-34 F 32 10:10.1 
354 1:21:24 Joann Thomas Bisbee F45-49 F 47 10:10.5 
355 1:21:26 Catherine Braman Tucson F50-54 F 50 10:10.8 
356 1:21:27 Carol Fuckes Tucson F50-54 F 51 10:10.9 
357 1:21:49 Nicole Mathias Tucson F30-34 F 32 10:13.6 
358 1:21:56 Marcella DeWeese Tucson F45-49 F 49 10:14.5 
359 1:22:10 Jessie Shinn Tucson F30-34 F 34 10:16.3 
360 1:22:20 Stephen Pyde Tucson M50-54 M 51 10:17.5 
361 1:22:21 Michael Chidrazzi Tucson M50-54 M 50 10:17.6 
362 1:22:26 Carolyn Reynolds-Stewart Tucson F60-64 F 60 10:18.3 
363 1:22:29 Kim Blumenfeld Tucson F45-49 F 47 10:18.6 
364 1:22:34 Sue Abramson Tucson F40-44 F 40 10:19.2 
365 1:22:36 Tracey Hage Gilbert F35-39 F 35 10:19.5 
366 1:22:37 Sandy White Tucson F40-44 F 43 10:19.6 
367 1:22:51 Ana PerrezArrieta Tucson F25-29 F 27 10:21.4 
368 1:22:52 David Sbarra Tucson M30-34 M 32 10:21.5 
369 1:22:56 Derek Reeves Mesa M35-39 M 38 10:22.0 
370 1:23:02 Enrique Almanza Tucson M25-29 M 28 10:22.7 
371 1:23:18 Russell Riordon GreenValley M55-59 M 55 10:24.7 
372 1:23:21 Gregg Lucas Tucson M50-54 M 54 10:25.1 
373 1:23:27 Reo Yoshitani Tucson M65-69 M 66 10:25.9 
374 1:23:29 Michael Venche Mesa M55-59 M 55 10:26.1 
375 1:23:47 Bob Wolfe Marana M65-69 M 65 10:28.4 
376 1:23:53 Roger Soden Phoenix M55-59 M 55 10:29.1 
377 1:23:58 Randall Doner Tucson M50-54 M 51 10:29.8 
378 1:24:02 Marcela Delgado Australia F25-29 F 28 10:30.2 
379 1:24:10 Joseph Bianco Tucson M65-69 M 67 10:31.3 
380 1:24:43 David Strong Tucson M60-64 M 60 10:35.4 
381 1:24:45 Antonio Durando Tucson M60-64 M 61 10:35.6 
382 1:24:46 Loren Carruth Vail F35-39 F 37 10:35.7 
383 1:24:50 Christina Campos Tucson F45-49 F 48 10:36.2 
384 1:25:08 Richard Wilson Tucson M40-44 M 43 10:38.5 
385 1:25:10 Allison Richter Tucson F30-34 F 33 10:38.8 
386 1:25:12 Alison Pujari Flagstaff F30-34 F 33 10:39.0 
387 1:25:12 Rick Unklesbay Tucson M50-54 M 51 10:39.0 
388 1:25:14 Andrea Foege Tucson F35-39 F 36 10:39.3 
389 1:25:22 Dennis Collins Tucson M50-54 M 52 10:40.2 
390 1:25:24 Julie Perkins OroValley F40-44 F 43 10:40.5 
391 1:25:25 Rudolph Rosen Tucson M50-54 M 53 10:40.6 
392 1:25:29 Gordon Roediger Tucson M50-54 M 52 10:41.1 
393 1:25:33 Joe Faulk Tucson M40-44 M 42 10:41.6 
394 1:25:34 Joseph Stover Tucson M25-29 M 26 10:41.7 
395 1:25:49 Ida Suarez Phoenix F50-54 F 50 10:43.6 
396 1:25:50 Peter Ramirez Phoenix M50-54 M 50 10:43.7 
397 1:25:51 Pamela Halt Tucson F45-49 F 49 10:43.9 
398 1:25:54 Penny Skaehill Mesa F40-44 F 41 10:44.3 
399 1:25:59 Steve Kulpa phoenix M55-59 M 55 10:44.9 
400 1:26:02 Erica Kollen Tucson F35-39 F 35 10:45.2 
401 1:26:03 Edward Turnbull tucson M60-64 M 61 10:45.4 
402 1:26:07 Kathryn Kinney Vail F25-29 F 25 10:45.9 
403 1:26:09 Jodi Azares Tucson F25-29 F 28 10:46.1 
404 1:26:13 Judy Gillies Tucson F55-59 F 57 10:46.6 
405 1:26:17 Dawn Walker Willcox F35-39 F 35 10:47.1 
406 1:26:22 Ferdinand Ragasa Tucson M25-29 M 25 10:47.7 
407 1:26:23 James Garcia Stockton M25-29 M 25 10:47.9 
408 1:26:24 Tabitha Thornhill Tucson F35-39 F 36 10:48.0 
409 1:26:25 Timothy Greenfield SierraVista M40-44 M 40 10:48.1 
410 1:26:28 Mohan Saini Tucson M30-34 M 34 10:48.5 
411 1:26:29 Eric Dhruv Tucson M35-39 M 38 10:48.6 
412 1:26:36 Mary Schmitt Scottsdale F35-39 F 38 10:49.5 
413 1:26:59 Joseph Knoblock Benson M50-54 M 52 10:52.4 
414 1:27:03 Joseph Miller Tucson M50-54 M 50 10:52.9 
415 1:27:17 Phyllis Williams Tucson F40-44 F 41 10:54.6 
416 1:27:21 Douglas Neill Tucson M40-44 M 44 10:55.1 
417 1:27:23 Lauren DeLillo Tucson F40-44 F 41 10:55.4 
418 1:27:27 Gemma Zanowski Tucson F20-24 F 20 10:55.9 
419 1:27:38 Glen Daw Tucson M50-54 M 51 10:57.3 
420 1:27:44 Nancy Pooley Tucson F40-44 F 44 10:58.0 
421 1:27:45 Gabrielle Rhind Tucson F40-44 F 42 10:58.1 
422 1:27:46 Denise Kinkade Tucson F50-54 F 51 10:58.2 
423 1:28:47 Heather Maller Tucson F35-39 F 35 11:05.9 
424 1:28:50 Nicole Savel Tucson F35-39 F 36 11:06.2 
425 1:28:52 Katherine Cunningham Tucson F45-49 F 49 11:06.5 
426 1:28:53 Jim Fancher Kerrville M75-79 M 75 11:06.6 
427 1:29:09 Katie Bindschandler Tucson F40-44 F 41 11:08.6 
428 1:29:10 Sharon Niekamp-Budris Tucson F35-39 F 35 11:08.8 
429 1:29:25 Melissa Kuhlman Phoenix F35-39 F 35 11:10.6 
430 1:29:25 Susan Vincent Tucson F40-44 F 44 11:10.6 
431 1:29:27 Helen Thompson Phoenix F40-44 F 43 11:10.9 
432 1:30:14 Jeff Hogg Tucson M55-59 M 55 11:16.8 
433 1:30:35 Katrina Smits Tucson F50-54 F 51 11:19.4 
434 1:30:40 Mark Sargent Tucson M35-39 M 37 11:20.0 
435 1:30:44 Myron Rottenstein Tucson M50-54 M 51 11:20.5 
436 1:30:48 John Luna Ajo M40-44 M 41 11:21.0 
437 1:31:15 Barbara Cone-Wesson Tucson F50-54 F 52 11:24.4 
438 1:31:29 Lansing Brown Tucson M60-64 M 62 11:26.1 
439 1:31:37 David Weeks Tempe M60-64 M 60 11:27.1 
440 1:31:42 Michelle Begay Tucson F35-39 F 36 11:27.8 
441 1:31:46 Rafael Meza Tucson M35-39 M 36 11:28.2 
442 1:31:51 Jody Schneider Tucson F45-49 F 49 11:28.9 
443 1:31:55 Marilynn Sando Tucson F50-54 F 53 11:29.4 
444 1:32:23 Steve Dolan Tucson M45-49 M 49 11:32.9 
445 1:32:32 Lani Ahuna Tucson M60-64 M 62 11:34.0 
446 1:32:47 Don Ankley Tucson M65-69 M 67 11:35.9 
447 1:32:52 Heather Baker Tucson F25-29 F 25 11:36.5 
448 1:32:57 Antonio Durando Tucson M60-64 M 61 11:37.1 
449 1:33:05 Martin Michelson Gilbert M55-59 M 59 11:38.1 
450 1:33:12 Pamela White Tucson F50-54 F 53 11:39.0 
451 1:33:25 Cathy Pensak Tucson F40-44 F 43 11:40.6 
452 1:33:46 Liz Redondo Tucson F45-49 F 46 11:43.2 
453 1:34:00 Paul Hyder ElPaso M50-54 M 51 11:45.0 
454 1:34:02 Teresa Brobeck LasCruces F45-49 F 46 11:45.2 
455 1:34:07 Maureen Cunningham Tucson F50-54 F 50 11:45.9 
456 1:34:18 Jennifer Duffy Tucson F20-24 F 24 11:47.2 
457 1:34:49 Patti Dobiecki Tucson F40-44 F 44 11:51.1 
458 1:34:50 Anita Kellman Tucson F45-49 F 48 11:51.2 
459 1:34:54 Lee Comrie Tucson F40-44 F 42 11:51.8 
460 1:35:00 Karrie Cravens Tucson F45-49 F 45 11:52.5 
461 1:35:02 Ellen Duperret Tucson F45-49 F 46 11:52.7 
462 1:35:11 Richard Manch Phoenix M60-64 M 61 11:53.9 
463 1:35:50 Arthur Transue Tucson M55-59 M 58 11:58.7 
464 1:35:58 Vicki Gricius Vail F45-49 F 47 11:59.8 
465 1:36:15 Kathy Rovito Tucson F50-54 F 54 12:01.9 
466 1:36:24 Jacqueline Franks Tucson F45-49 F 45 12:03.0 
467 1:37:17 Vivian Hutchins Tucson F50-54 F 50 12:09.6 
468 1:37:36 Kara Sickelbauer OroValley F35-39 F 36 12:12.0 
469 1:37:41 Shellie Croft Tucson F35-39 F 36 12:12.6 
470 1:37:45 Gerald Loper Tucson M65-69 M 69 12:13.1 
471 1:37:48 Connie Lopez Tucson F55-59 F 55 12:13.5 
472 1:37:57 Sue Smith Tucson F65-69 F 65 12:14.6 
473 1:38:00 Melanie Olsen Tucson F30-34 F 33 12:15.0 
474 1:38:16 Robert Howard Tucson M45-49 M 47 12:17.0 
475 1:38:23 Tobin Bostick Tucson M40-44 M 44 12:17.9 
476 1:38:33 Jeanne Pfander Tucson F45-49 F 49 12:19.1 
477 1:39:00 Jennifer Richardson Tucson F30-34 F 33 12:22.5 
478 1:39:11 JoAnne Kane Tucson F45-49 F 46 12:23.9 
479 1:39:33 Maralyn Goldstein Tucson F50-54 F 53 12:26.6 
480 1:39:34 Eric Krutzsch Tucson M50-54 M 53 12:26.7 
481 1:39:44 Nicole Ingraham Vail F25-29 F 26 12:28.0 
482 1:40:17 Catherine Quesnel Tucson F55-59 F 57 12:32.1 
483 1:40:24 Anthony Okeke Tucson M50-54 M 50 12:33.0 
484 1:40:41 Jescah Okake Adiss Tucson F40-44 F 44 12:35.1 
485 1:40:45 Julia Taylor Tucson F55-59 F 59 12:35.6 
486 1:40:49 Dale Bugbee Tucson M50-54 M 52 12:36.1 
487 1:40:54 Amanda Mulleneaux Tucson F25-29 F 28 12:36.8 
488 1:41:01 Tracy Richardson Tucson M40-44 M 44 12:37.6 
489 1:41:05 Cyndi Doerflein Tucson F30-34 F 31 12:38.1 
490 1:41:18 Paul Stackpole Tucson M70-74 M 72 12:39.7 
491 1:41:21 Cyndie Hogg Tucson F50-54 F 53 12:40.1 
492 1:41:53 Ruth Hooper Tucson F55-59 F 55 12:44.1 
493 1:42:00 Karen Choo Tucson F30-34 F 34 12:45.0 
494 1:42:11 Amy Heckman Benson F40-44 F 41 12:46.4 
495 1:43:19 Dorothy Wilhelmsen Tucson F75-79 F 77 12:54.9 
496 1:43:31 John Vincent Tucson M40-44 M 43 12:56.4 
497 1:43:33 Erin Vincent Tucson F40-44 F 40 12:56.6 
498 1:43:53 Gloria Carrington Tucson F45-49 F 46 12:59.1 
499 1:44:09 pierette kulpa phoenix F20-24 F 22 13:01.1 
500 1:44:31 Angela Bordonaro Tucson F30-34 F 32 13:03.9 
501 1:44:33 Bridget Haga RedondoBeach F30-34 F 30 13:04.1 
502 1:45:07 Andrea Sornoza phoenix F35-39 F 35 13:08.4 
503 1:45:11 Patrick Butler Tucson M50-54 M 53 13:08.9 
504 1:45:29 Wayne Weld Tucson M60-64 M 62 13:11.1 
505 1:45:57 Chuck Scharf Tucson M60-64 M 60 13:14.6 
506 1:46:16 Dorothy Lu Tucson F55-59 F 59 13:17.0 
507 1:46:45 Chona Midel Tucson F30-34 F 34 13:20.6 
508 1:48:00 Christine Chambers Tucson F55-59 F 58 13:30.0 
509 1:48:25 Henry Figueroa Tucson M25-29 M 27 13:33.1 
510 1:48:33 Sidney Hirsh Tucson M75-79 M 75 13:34.1 
511 1:49:04 Dave Mills Tucson M45-49 M 45 13:38.0 
512 1:50:04 Paul Connery Flossmoor M50-54 M 54 13:45.5 
513 1:50:49 Gloria Miller Tucson F55-59 F 58 13:51.1 
514 1:51:01 Gene Stout Tucson M60-64 M 63 13:52.6 
515 1:51:31 Helen Jones Tucson F60-64 F 60 13:56.4 
516 1:54:42 Patricia Wiercinski Tucson F40-44 F 41 14:20.3 
517 1:55:41 Mary Dahlen Tucson F55-59 F 57 14:27.6 
518 2:03:21 Theresa Riel Tucson F40-44 F 40 15:25.1 
519 2:13:51 Shelly Poore Tucson F60-64 F 61 16:43.9 
520 2:13:56 Katie Poore Tucson F30-34 F 32 16:44.5 
521 2:13:59 Anna Morris Tucson F35-39 F 35 16:44.9 
522 2:14:04 Susanne Tygielski Tucson F30-34 F 33 16:45.5 
523 2:14:07 Leslie Waters Tucson F40-44 F 44 16:45.9 

 

Copyright © 2005 Southern Arizona Roadrunners 


The Southern Arizona Roadrunners is a not-for-profit organization dedicated to promoting health and fitness in Tucson and Southern Arizona through running and walking.

southern arizona road runners